sensor_id;sensor_type;location;lat;lon;timestamp;P1;durP1;ratioP1;P2;durP2;ratioP2
13051;SDS011;6592;47.484;9.726;2023-04-06T00:00:26;5.40;;;2.37;;
13051;SDS011;6592;47.484;9.726;2023-04-06T00:02:55;8.00;;;3.27;;
13051;SDS011;6592;47.484;9.726;2023-04-06T00:05:25;6.20;;;2.83;;
13051;SDS011;6592;47.484;9.726;2023-04-06T00:07:54;7.63;;;3.47;;
13051;SDS011;6592;47.484;9.726;2023-04-06T00:10:22;8.33;;;2.87;;
13051;SDS011;6592;47.484;9.726;2023-04-06T00:12:51;8.50;;;3.47;;
13051;SDS011;6592;47.484;9.726;2023-04-06T00:15:19;9.50;;;3.60;;
13051;SDS011;6592;47.484;9.726;2023-04-06T00:17:47;7.40;;;3.40;;
13051;SDS011;6592;47.484;9.726;2023-04-06T00:20:16;8.20;;;3.47;;
13051;SDS011;6592;47.484;9.726;2023-04-06T00:22:46;9.07;;;3.43;;
13051;SDS011;6592;47.484;9.726;2023-04-06T00:25:15;9.10;;;3.17;;
13051;SDS011;6592;47.484;9.726;2023-04-06T00:27:43;6.97;;;3.10;;
13051;SDS011;6592;47.484;9.726;2023-04-06T00:30:12;6.90;;;3.40;;
13051;SDS011;6592;47.484;9.726;2023-04-06T00:32:40;7.37;;;3.37;;
13051;SDS011;6592;47.484;9.726;2023-04-06T00:35:09;8.63;;;3.93;;
13051;SDS011;6592;47.484;9.726;2023-04-06T00:37:37;6.20;;;3.10;;
13051;SDS011;6592;47.484;9.726;2023-04-06T00:40:08;10.07;;;3.80;;
13051;SDS011;6592;47.484;9.726;2023-04-06T00:42:37;6.45;;;3.20;;
13051;SDS011;6592;47.484;9.726;2023-04-06T00:45:06;8.73;;;3.77;;
13051;SDS011;6592;47.484;9.726;2023-04-06T00:47:35;7.90;;;3.13;;
13051;SDS011;6592;47.484;9.726;2023-04-06T00:50:04;7.47;;;3.40;;
13051;SDS011;6592;47.484;9.726;2023-04-06T00:52:33;9.60;;;3.67;;
13051;SDS011;6592;47.484;9.726;2023-04-06T00:55:02;7.47;;;3.27;;
13051;SDS011;6592;47.484;9.726;2023-04-06T00:57:32;8.87;;;3.57;;
13051;SDS011;6592;47.484;9.726;2023-04-06T01:00:00;4.23;;;1.93;;
13051;SDS011;6592;47.484;9.726;2023-04-06T01:02:29;3.70;;;1.60;;
13051;SDS011;6592;47.484;9.726;2023-04-06T01:04:57;6.80;;;3.23;;
13051;SDS011;6592;47.484;9.726;2023-04-06T01:07:26;7.87;;;3.60;;
13051;SDS011;6592;47.484;9.726;2023-04-06T01:09:54;5.13;;;2.70;;
13051;SDS011;6592;47.484;9.726;2023-04-06T01:12:23;4.80;;;2.00;;
13051;SDS011;6592;47.484;9.726;2023-04-06T01:14:53;7.70;;;3.50;;
13051;SDS011;6592;47.484;9.726;2023-04-06T01:17:21;6.30;;;2.70;;
13051;SDS011;6592;47.484;9.726;2023-04-06T01:19:50;6.57;;;2.87;;
13051;SDS011;6592;47.484;9.726;2023-04-06T01:22:21;7.77;;;3.47;;
13051;SDS011;6592;47.484;9.726;2023-04-06T01:24:51;8.88;;;3.40;;
13051;SDS011;6592;47.484;9.726;2023-04-06T01:27:19;7.17;;;3.43;;
13051;SDS011;6592;47.484;9.726;2023-04-06T01:29:48;7.63;;;3.57;;
13051;SDS011;6592;47.484;9.726;2023-04-06T01:32:16;8.27;;;3.50;;
13051;SDS011;6592;47.484;9.726;2023-04-06T01:34:45;8.47;;;2.90;;
13051;SDS011;6592;47.484;9.726;2023-04-06T01:37:13;8.47;;;3.70;;
13051;SDS011;6592;47.484;9.726;2023-04-06T01:39:43;6.13;;;3.10;;
13051;SDS011;6592;47.484;9.726;2023-04-06T01:42:11;7.37;;;3.07;;
13051;SDS011;6592;47.484;9.726;2023-04-06T01:44:40;9.50;;;3.80;;
13051;SDS011;6592;47.484;9.726;2023-04-06T01:47:08;9.37;;;3.63;;
13051;SDS011;6592;47.484;9.726;2023-04-06T01:49:36;9.27;;;3.50;;
13051;SDS011;6592;47.484;9.726;2023-04-06T01:52:04;6.77;;;3.47;;
13051;SDS011;6592;47.484;9.726;2023-04-06T01:54:33;6.17;;;3.17;;
13051;SDS011;6592;47.484;9.726;2023-04-06T01:57:03;7.27;;;3.37;;
13051;SDS011;6592;47.484;9.726;2023-04-06T01:59:31;8.80;;;4.00;;
13051;SDS011;6592;47.484;9.726;2023-04-06T02:02:00;7.70;;;3.77;;
13051;SDS011;6592;47.484;9.726;2023-04-06T02:04:28;7.80;;;3.40;;
13051;SDS011;6592;47.484;9.726;2023-04-06T02:06:57;9.07;;;3.90;;
13051;SDS011;6592;47.484;9.726;2023-04-06T02:09:25;7.17;;;3.20;;
13051;SDS011;6592;47.484;9.726;2023-04-06T02:11:53;7.97;;;2.90;;
13051;SDS011;6592;47.484;9.726;2023-04-06T02:14:24;7.00;;;3.17;;
13051;SDS011;6592;47.484;9.726;2023-04-06T02:16:53;7.78;;;3.58;;
13051;SDS011;6592;47.484;9.726;2023-04-06T02:19:22;10.10;;;3.63;;
13051;SDS011;6592;47.484;9.726;2023-04-06T02:21:50;7.97;;;3.67;;
13051;SDS011;6592;47.484;9.726;2023-04-06T02:24:18;8.23;;;3.60;;
13051;SDS011;6592;47.484;9.726;2023-04-06T02:26:47;8.23;;;3.50;;
13051;SDS011;6592;47.484;9.726;2023-04-06T02:29:15;7.90;;;3.77;;
13051;SDS011;6592;47.484;9.726;2023-04-06T02:31:45;6.90;;;3.37;;
13051;SDS011;6592;47.484;9.726;2023-04-06T02:34:13;8.13;;;3.37;;
13051;SDS011;6592;47.484;9.726;2023-04-06T02:36:44;7.90;;;3.67;;
13051;SDS011;6592;47.484;9.726;2023-04-06T02:39:14;6.97;;;3.07;;
13051;SDS011;6592;47.484;9.726;2023-04-06T02:41:42;8.47;;;3.37;;
13051;SDS011;6592;47.484;9.726;2023-04-06T02:44:11;7.13;;;3.10;;
13051;SDS011;6592;47.484;9.726;2023-04-06T02:46:39;8.30;;;3.20;;
13051;SDS011;6592;47.484;9.726;2023-04-06T02:49:09;6.33;;;2.70;;
13051;SDS011;6592;47.484;9.726;2023-04-06T02:51:37;5.67;;;2.07;;
13051;SDS011;6592;47.484;9.726;2023-04-06T02:54:05;5.67;;;1.70;;
13051;SDS011;6592;47.484;9.726;2023-04-06T02:56:34;7.53;;;3.03;;
13051;SDS011;6592;47.484;9.726;2023-04-06T02:59:02;7.93;;;3.47;;
13051;SDS011;6592;47.484;9.726;2023-04-06T03:01:31;10.13;;;3.33;;
13051;SDS011;6592;47.484;9.726;2023-04-06T03:03:59;8.77;;;3.23;;
13051;SDS011;6592;47.484;9.726;2023-04-06T03:06:29;7.10;;;2.90;;
13051;SDS011;6592;47.484;9.726;2023-04-06T03:08:58;8.43;;;2.63;;
13051;SDS011;6592;47.484;9.726;2023-04-06T03:11:26;7.83;;;3.37;;
13051;SDS011;6592;47.484;9.726;2023-04-06T03:13:54;8.70;;;3.50;;
13051;SDS011;6592;47.484;9.726;2023-04-06T03:16:23;7.30;;;3.30;;
13051;SDS011;6592;47.484;9.726;2023-04-06T03:18:51;8.43;;;3.73;;
13051;SDS011;6592;47.484;9.726;2023-04-06T03:21:19;7.33;;;3.07;;
13051;SDS011;6592;47.484;9.726;2023-04-06T03:23:49;7.53;;;3.60;;
13051;SDS011;6592;47.484;9.726;2023-04-06T03:26:17;6.33;;;2.77;;
13051;SDS011;6592;47.484;9.726;2023-04-06T03:28:46;8.97;;;3.00;;
13051;SDS011;6592;47.484;9.726;2023-04-06T03:31:14;9.70;;;3.47;;
13051;SDS011;6592;47.484;9.726;2023-04-06T03:33:42;7.90;;;3.13;;
13051;SDS011;6592;47.484;9.726;2023-04-06T03:36:11;7.70;;;3.00;;
13051;SDS011;6592;47.484;9.726;2023-04-06T03:38:39;8.37;;;3.00;;
13051;SDS011;6592;47.484;9.726;2023-04-06T03:41:09;6.57;;;2.70;;
13051;SDS011;6592;47.484;9.726;2023-04-06T03:43:37;6.27;;;2.70;;
13051;SDS011;6592;47.484;9.726;2023-04-06T03:46:06;7.47;;;3.27;;
13051;SDS011;6592;47.484;9.726;2023-04-06T03:48:34;11.03;;;3.57;;
13051;SDS011;6592;47.484;9.726;2023-04-06T03:51:03;8.50;;;3.67;;
13051;SDS011;6592;47.484;9.726;2023-04-06T03:53:31;9.03;;;3.93;;
13051;SDS011;6592;47.484;9.726;2023-04-06T03:56:00;8.50;;;3.43;;
13051;SDS011;6592;47.484;9.726;2023-04-06T03:58:31;8.77;;;3.40;;
13051;SDS011;6592;47.484;9.726;2023-04-06T04:01:00;7.83;;;3.30;;
13051;SDS011;6592;47.484;9.726;2023-04-06T04:03:28;6.57;;;3.13;;
13051;SDS011;6592;47.484;9.726;2023-04-06T04:05:56;9.23;;;3.27;;
13051;SDS011;6592;47.484;9.726;2023-04-06T04:08:25;6.47;;;3.03;;
13051;SDS011;6592;47.484;9.726;2023-04-06T04:10:53;7.37;;;3.50;;
13051;SDS011;6592;47.484;9.726;2023-04-06T04:13:22;8.53;;;3.50;;
13051;SDS011;6592;47.484;9.726;2023-04-06T04:15:51;7.10;;;3.30;;
13051;SDS011;6592;47.484;9.726;2023-04-06T04:18:20;8.90;;;3.60;;
13051;SDS011;6592;47.484;9.726;2023-04-06T04:20:48;7.50;;;2.93;;
13051;SDS011;6592;47.484;9.726;2023-04-06T04:23:16;6.57;;;2.90;;
13051;SDS011;6592;47.484;9.726;2023-04-06T04:25:45;8.20;;;3.37;;
13051;SDS011;6592;47.484;9.726;2023-04-06T04:28:13;8.73;;;3.07;;
13051;SDS011;6592;47.484;9.726;2023-04-06T04:30:41;7.70;;;3.40;;
13051;SDS011;6592;47.484;9.726;2023-04-06T04:33:11;8.63;;;3.70;;
13051;SDS011;6592;47.484;9.726;2023-04-06T04:35:39;8.63;;;3.47;;
13051;SDS011;6592;47.484;9.726;2023-04-06T04:38:08;8.03;;;3.33;;
13051;SDS011;6592;47.484;9.726;2023-04-06T04:40:36;7.93;;;3.60;;
13051;SDS011;6592;47.484;9.726;2023-04-06T04:43:04;8.57;;;3.80;;
13051;SDS011;6592;47.484;9.726;2023-04-06T04:45:33;7.40;;;3.20;;
13051;SDS011;6592;47.484;9.726;2023-04-06T04:48:01;7.67;;;3.50;;
13051;SDS011;6592;47.484;9.726;2023-04-06T04:50:32;7.73;;;3.23;;
13051;SDS011;6592;47.484;9.726;2023-04-06T04:53:01;6.07;;;2.70;;
13051;SDS011;6592;47.484;9.726;2023-04-06T04:55:31;8.33;;;3.23;;
13051;SDS011;6592;47.484;9.726;2023-04-06T04:58:00;7.40;;;3.37;;
13051;SDS011;6592;47.484;9.726;2023-04-06T05:00:28;7.27;;;3.10;;
13051;SDS011;6592;47.484;9.726;2023-04-06T05:02:57;8.73;;;3.80;;
13051;SDS011;6592;47.484;9.726;2023-04-06T05:05:26;7.60;;;3.17;;
13051;SDS011;6592;47.484;9.726;2023-04-06T05:07:56;7.40;;;3.43;;
13051;SDS011;6592;47.484;9.726;2023-04-06T05:10:24;6.17;;;3.27;;
13051;SDS011;6592;47.484;9.726;2023-04-06T05:12:53;9.07;;;3.47;;
13051;SDS011;6592;47.484;9.726;2023-04-06T05:15:21;7.63;;;3.43;;
13051;SDS011;6592;47.484;9.726;2023-04-06T05:17:50;6.57;;;2.93;;
13051;SDS011;6592;47.484;9.726;2023-04-06T05:20:18;6.33;;;3.20;;
13051;SDS011;6592;47.484;9.726;2023-04-06T05:22:47;6.03;;;3.10;;
13051;SDS011;6592;47.484;9.726;2023-04-06T05:25:16;7.43;;;2.93;;
13051;SDS011;6592;47.484;9.726;2023-04-06T05:27:45;7.37;;;3.27;;
13051;SDS011;6592;47.484;9.726;2023-04-06T05:30:13;8.83;;;3.37;;
13051;SDS011;6592;47.484;9.726;2023-04-06T05:32:42;7.83;;;3.60;;
13051;SDS011;6592;47.484;9.726;2023-04-06T05:35:11;6.20;;;2.63;;
13051;SDS011;6592;47.484;9.726;2023-04-06T05:37:39;8.00;;;3.40;;
13051;SDS011;6592;47.484;9.726;2023-04-06T05:40:08;9.03;;;3.70;;
13051;SDS011;6592;47.484;9.726;2023-04-06T05:42:38;6.77;;;3.10;;
13051;SDS011;6592;47.484;9.726;2023-04-06T05:45:07;6.63;;;2.90;;
13051;SDS011;6592;47.484;9.726;2023-04-06T05:47:37;7.47;;;3.00;;
13051;SDS011;6592;47.484;9.726;2023-04-06T05:50:06;6.83;;;3.20;;
13051;SDS011;6592;47.484;9.726;2023-04-06T05:52:35;7.97;;;3.87;;
13051;SDS011;6592;47.484;9.726;2023-04-06T05:55:03;9.40;;;2.93;;
13051;SDS011;6592;47.484;9.726;2023-04-06T05:57:35;8.73;;;3.17;;
13051;SDS011;6592;47.484;9.726;2023-04-06T06:00:05;8.23;;;3.33;;
13051;SDS011;6592;47.484;9.726;2023-04-06T06:02:36;7.07;;;3.33;;
13051;SDS011;6592;47.484;9.726;2023-04-06T06:05:06;7.43;;;3.50;;
13051;SDS011;6592;47.484;9.726;2023-04-06T06:07:35;8.67;;;3.87;;
13051;SDS011;6592;47.484;9.726;2023-04-06T06:10:03;8.03;;;3.80;;
13051;SDS011;6592;47.484;9.726;2023-04-06T06:12:32;7.13;;;3.42;;
13051;SDS011;6592;47.484;9.726;2023-04-06T06:15:00;11.43;;;4.45;;
13051;SDS011;6592;47.484;9.726;2023-04-06T06:17:30;8.48;;;3.70;;
13051;SDS011;6592;47.484;9.726;2023-04-06T06:19:59;7.90;;;3.15;;
13051;SDS011;6592;47.484;9.726;2023-04-06T06:22:27;6.88;;;3.55;;
13051;SDS011;6592;47.484;9.726;2023-04-06T06:24:55;8.18;;;3.60;;
13051;SDS011;6592;47.484;9.726;2023-04-06T06:27:24;8.02;;;3.28;;
13051;SDS011;6592;47.484;9.726;2023-04-06T06:29:52;7.72;;;3.67;;
13051;SDS011;6592;47.484;9.726;2023-04-06T06:32:20;7.57;;;3.60;;
13051;SDS011;6592;47.484;9.726;2023-04-06T06:34:50;11.30;;;5.75;;
13051;SDS011;6592;47.484;9.726;2023-04-06T06:37:19;16.55;;;5.80;;
13051;SDS011;6592;47.484;9.726;2023-04-06T06:39:47;7.15;;;3.70;;
13051;SDS011;6592;47.484;9.726;2023-04-06T06:42:15;8.40;;;3.80;;
13051;SDS011;6592;47.484;9.726;2023-04-06T06:44:43;9.50;;;3.95;;
13051;SDS011;6592;47.484;9.726;2023-04-06T06:47:12;8.85;;;4.18;;
13051;SDS011;6592;47.484;9.726;2023-04-06T06:49:40;7.88;;;4.13;;
13051;SDS011;6592;47.484;9.726;2023-04-06T06:52:10;9.93;;;4.88;;
13051;SDS011;6592;47.484;9.726;2023-04-06T06:54:38;8.77;;;4.68;;
13051;SDS011;6592;47.484;9.726;2023-04-06T06:57:06;11.15;;;4.50;;
13051;SDS011;6592;47.484;9.726;2023-04-06T06:59:35;10.50;;;4.68;;
13051;SDS011;6592;47.484;9.726;2023-04-06T07:02:03;7.45;;;4.13;;
13051;SDS011;6592;47.484;9.726;2023-04-06T07:04:32;8.45;;;4.15;;
13051;SDS011;6592;47.484;9.726;2023-04-06T07:07:00;8.35;;;3.60;;
13051;SDS011;6592;47.484;9.726;2023-04-06T07:09:31;7.47;;;4.00;;
13051;SDS011;6592;47.484;9.726;2023-04-06T07:11:59;8.57;;;4.00;;
13051;SDS011;6592;47.484;9.726;2023-04-06T07:14:28;8.38;;;3.97;;
13051;SDS011;6592;47.484;9.726;2023-04-06T07:16:56;8.07;;;4.18;;
13051;SDS011;6592;47.484;9.726;2023-04-06T07:19:25;8.40;;;4.07;;
13051;SDS011;6592;47.484;9.726;2023-04-06T07:21:53;5.88;;;3.47;;
13051;SDS011;6592;47.484;9.726;2023-04-06T07:24:22;7.35;;;3.83;;
13051;SDS011;6592;47.484;9.726;2023-04-06T07:26:52;11.38;;;4.88;;
13051;SDS011;6592;47.484;9.726;2023-04-06T07:29:20;8.63;;;3.75;;
13051;SDS011;6592;47.484;9.726;2023-04-06T07:31:49;7.15;;;3.88;;
13051;SDS011;6592;47.484;9.726;2023-04-06T07:34:17;9.23;;;3.95;;
13051;SDS011;6592;47.484;9.726;2023-04-06T07:36:46;10.43;;;4.03;;
13051;SDS011;6592;47.484;9.726;2023-04-06T07:39:14;7.57;;;4.07;;
13051;SDS011;6592;47.484;9.726;2023-04-06T07:41:43;8.23;;;3.95;;
13051;SDS011;6592;47.484;9.726;2023-04-06T07:44:12;8.40;;;4.30;;
13051;SDS011;6592;47.484;9.726;2023-04-06T07:46:41;8.50;;;3.80;;
13051;SDS011;6592;47.484;9.726;2023-04-06T07:49:09;8.25;;;3.83;;
13051;SDS011;6592;47.484;9.726;2023-04-06T07:51:38;7.55;;;3.55;;
13051;SDS011;6592;47.484;9.726;2023-04-06T07:54:07;9.15;;;4.40;;
13051;SDS011;6592;47.484;9.726;2023-04-06T07:56:35;8.48;;;4.03;;
13051;SDS011;6592;47.484;9.726;2023-04-06T07:59:03;10.00;;;4.25;;
13051;SDS011;6592;47.484;9.726;2023-04-06T08:01:33;7.57;;;4.28;;
13051;SDS011;6592;47.484;9.726;2023-04-06T08:04:02;6.75;;;3.78;;
13051;SDS011;6592;47.484;9.726;2023-04-06T08:06:30;6.85;;;3.90;;
13051;SDS011;6592;47.484;9.726;2023-04-06T08:08:59;11.23;;;5.35;;
13051;SDS011;6592;47.484;9.726;2023-04-06T08:11:27;7.35;;;4.35;;
13051;SDS011;6592;47.484;9.726;2023-04-06T08:13:56;7.47;;;4.40;;
13051;SDS011;6592;47.484;9.726;2023-04-06T08:16:24;8.57;;;3.97;;
13051;SDS011;6592;47.484;9.726;2023-04-06T08:18:54;13.13;;;4.53;;
13051;SDS011;6592;47.484;9.726;2023-04-06T08:21:22;12.60;;;5.32;;
13051;SDS011;6592;47.484;9.726;2023-04-06T08:23:51;13.02;;;4.97;;
13051;SDS011;6592;47.484;9.726;2023-04-06T08:26:19;12.50;;;5.28;;
13051;SDS011;6592;47.484;9.726;2023-04-06T08:28:48;8.13;;;4.28;;
13051;SDS011;6592;47.484;9.726;2023-04-06T08:31:16;7.63;;;4.00;;
13051;SDS011;6592;47.484;9.726;2023-04-06T08:33:45;7.35;;;4.05;;
13051;SDS011;6592;47.484;9.726;2023-04-06T08:36:15;7.50;;;4.30;;
13051;SDS011;6592;47.484;9.726;2023-04-06T08:38:46;7.55;;;4.10;;
13051;SDS011;6592;47.484;9.726;2023-04-06T08:41:15;8.25;;;5.05;;
13051;SDS011;6592;47.484;9.726;2023-04-06T08:43:44;7.90;;;4.28;;
13051;SDS011;6592;47.484;9.726;2023-04-06T08:46:15;7.43;;;4.55;;
13051;SDS011;6592;47.484;9.726;2023-04-06T08:48:45;7.10;;;4.28;;
13051;SDS011;6592;47.484;9.726;2023-04-06T08:51:17;9.15;;;4.80;;
13051;SDS011;6592;47.484;9.726;2023-04-06T08:53:46;9.43;;;4.43;;
13051;SDS011;6592;47.484;9.726;2023-04-06T08:56:16;7.75;;;4.60;;
13051;SDS011;6592;47.484;9.726;2023-04-06T08:58:45;12.70;;;4.85;;
13051;SDS011;6592;47.484;9.726;2023-04-06T09:01:13;9.18;;;4.55;;
13051;SDS011;6592;47.484;9.726;2023-04-06T09:03:44;9.60;;;4.88;;
13051;SDS011;6592;47.484;9.726;2023-04-06T09:06:17;7.97;;;5.00;;
13051;SDS011;6592;47.484;9.726;2023-04-06T09:08:46;8.02;;;4.82;;
13051;SDS011;6592;47.484;9.726;2023-04-06T09:11:14;9.60;;;5.13;;
13051;SDS011;6592;47.484;9.726;2023-04-06T09:13:46;9.27;;;4.75;;
13051;SDS011;6592;47.484;9.726;2023-04-06T09:16:16;8.05;;;4.53;;
13051;SDS011;6592;47.484;9.726;2023-04-06T09:18:45;7.55;;;5.03;;
13051;SDS011;6592;47.484;9.726;2023-04-06T09:21:16;7.28;;;4.68;;
13051;SDS011;6592;47.484;9.726;2023-04-06T09:23:58;10.32;;;4.80;;
13051;SDS011;6592;47.484;9.726;2023-04-06T09:26:27;8.30;;;4.97;;
13051;SDS011;6592;47.484;9.726;2023-04-06T09:28:56;7.95;;;4.95;;
13051;SDS011;6592;47.484;9.726;2023-04-06T09:31:27;9.48;;;5.18;;
13051;SDS011;6592;47.484;9.726;2023-04-06T09:33:59;7.93;;;5.05;;
13051;SDS011;6592;47.484;9.726;2023-04-06T09:36:34;8.70;;;5.40;;
13051;SDS011;6592;47.484;9.726;2023-04-06T09:39:04;11.32;;;5.05;;
13051;SDS011;6592;47.484;9.726;2023-04-06T09:41:34;8.55;;;5.82;;
13051;SDS011;6592;47.484;9.726;2023-04-06T09:44:03;8.77;;;5.90;;
13051;SDS011;6592;47.484;9.726;2023-04-06T09:46:33;10.38;;;6.32;;
13051;SDS011;6592;47.484;9.726;2023-04-06T09:49:23;9.27;;;6.05;;
13051;SDS011;6592;47.484;9.726;2023-04-06T09:51:58;10.43;;;6.43;;
13051;SDS011;6592;47.484;9.726;2023-04-06T09:54:28;8.90;;;6.53;;
13051;SDS011;6592;47.484;9.726;2023-04-06T09:57:00;10.97;;;6.63;;
13051;SDS011;6592;47.484;9.726;2023-04-06T09:59:36;9.60;;;6.47;;
13051;SDS011;6592;47.484;9.726;2023-04-06T10:02:13;10.57;;;6.25;;
13051;SDS011;6592;47.484;9.726;2023-04-06T10:04:47;10.43;;;6.68;;
13051;SDS011;6592;47.484;9.726;2023-04-06T10:07:24;10.60;;;6.95;;
13051;SDS011;6592;47.484;9.726;2023-04-06T10:09:54;8.88;;;5.82;;
13051;SDS011;6592;47.484;9.726;2023-04-06T10:12:23;11.15;;;6.30;;
13051;SDS011;6592;47.484;9.726;2023-04-06T10:14:51;11.85;;;6.20;;
13051;SDS011;6592;47.484;9.726;2023-04-06T10:17:20;8.70;;;6.07;;
13051;SDS011;6592;47.484;9.726;2023-04-06T10:19:52;9.65;;;6.28;;
13051;SDS011;6592;47.484;9.726;2023-04-06T10:22:28;9.32;;;6.47;;
13051;SDS011;6592;47.484;9.726;2023-04-06T10:25:03;8.32;;;5.70;;
13051;SDS011;6592;47.484;9.726;2023-04-06T10:27:32;8.18;;;5.68;;
13051;SDS011;6592;47.484;9.726;2023-04-06T10:30:01;11.43;;;5.68;;
13051;SDS011;6592;47.484;9.726;2023-04-06T10:32:34;7.43;;;5.22;;
13051;SDS011;6592;47.484;9.726;2023-04-06T10:35:07;9.52;;;5.22;;
13051;SDS011;6592;47.484;9.726;2023-04-06T10:37:47;8.02;;;5.25;;
13051;SDS011;6592;47.484;9.726;2023-04-06T10:40:18;7.53;;;4.85;;
13051;SDS011;6592;47.484;9.726;2023-04-06T10:42:52;8.07;;;4.97;;
13051;SDS011;6592;47.484;9.726;2023-04-06T10:45:21;8.30;;;5.05;;
13051;SDS011;6592;47.484;9.726;2023-04-06T10:47:52;8.52;;;5.50;;
13051;SDS011;6592;47.484;9.726;2023-04-06T10:50:21;10.25;;;5.50;;
13051;SDS011;6592;47.484;9.726;2023-04-06T10:53:00;8.55;;;5.70;;
13051;SDS011;6592;47.484;9.726;2023-04-06T10:55:28;8.30;;;5.10;;
13051;SDS011;6592;47.484;9.726;2023-04-06T10:57:58;8.73;;;5.38;;
13051;SDS011;6592;47.484;9.726;2023-04-06T11:00:26;8.60;;;5.72;;
13051;SDS011;6592;47.484;9.726;2023-04-06T11:03:08;7.50;;;5.18;;
13051;SDS011;6592;47.484;9.726;2023-04-06T11:05:36;6.15;;;3.90;;
13051;SDS011;6592;47.484;9.726;2023-04-06T11:08:06;5.78;;;4.00;;
13051;SDS011;6592;47.484;9.726;2023-04-06T11:10:35;5.95;;;3.58;;
13051;SDS011;6592;47.484;9.726;2023-04-06T11:13:03;7.47;;;4.28;;
13051;SDS011;6592;47.484;9.726;2023-04-06T11:15:33;5.85;;;3.67;;
13051;SDS011;6592;47.484;9.726;2023-04-06T11:18:04;6.10;;;3.92;;
13051;SDS011;6592;47.484;9.726;2023-04-06T11:20:33;6.80;;;3.85;;
13051;SDS011;6592;47.484;9.726;2023-04-06T11:23:01;5.80;;;3.40;;
13051;SDS011;6592;47.484;9.726;2023-04-06T11:25:31;5.57;;;3.58;;
13051;SDS011;6592;47.484;9.726;2023-04-06T11:27:59;5.43;;;3.17;;
13051;SDS011;6592;47.484;9.726;2023-04-06T11:30:28;7.10;;;3.60;;
13051;SDS011;6592;47.484;9.726;2023-04-06T11:33:00;6.05;;;3.33;;
13051;SDS011;6592;47.484;9.726;2023-04-06T11:35:30;5.05;;;3.30;;
13051;SDS011;6592;47.484;9.726;2023-04-06T11:38:02;5.25;;;3.47;;
13051;SDS011;6592;47.484;9.726;2023-04-06T11:40:32;5.57;;;3.40;;
13051;SDS011;6592;47.484;9.726;2023-04-06T11:43:00;5.57;;;3.40;;
13051;SDS011;6592;47.484;9.726;2023-04-06T11:45:39;5.55;;;3.13;;
13051;SDS011;6592;47.484;9.726;2023-04-06T11:48:17;5.90;;;3.45;;
13051;SDS011;6592;47.484;9.726;2023-04-06T11:50:47;5.15;;;3.17;;
13051;SDS011;6592;47.484;9.726;2023-04-06T11:53:15;7.10;;;3.33;;
13051;SDS011;6592;47.484;9.726;2023-04-06T11:55:45;5.85;;;3.30;;
13051;SDS011;6592;47.484;9.726;2023-04-06T11:58:14;4.82;;;2.90;;
13051;SDS011;6592;47.484;9.726;2023-04-06T12:00:43;4.70;;;3.17;;
13051;SDS011;6592;47.484;9.726;2023-04-06T12:03:13;5.75;;;3.47;;
13051;SDS011;6592;47.484;9.726;2023-04-06T12:05:42;4.07;;;2.83;;
13051;SDS011;6592;47.484;9.726;2023-04-06T12:08:11;5.38;;;3.40;;
13051;SDS011;6592;47.484;9.726;2023-04-06T12:10:39;6.70;;;3.50;;
13051;SDS011;6592;47.484;9.726;2023-04-06T12:13:09;5.72;;;3.50;;
13051;SDS011;6592;47.484;9.726;2023-04-06T12:15:37;6.35;;;3.83;;
13051;SDS011;6592;47.484;9.726;2023-04-06T12:18:06;6.10;;;4.15;;
13051;SDS011;6592;47.484;9.726;2023-04-06T12:20:34;7.15;;;4.40;;
13051;SDS011;6592;47.484;9.726;2023-04-06T12:23:03;7.38;;;4.20;;
13051;SDS011;6592;47.484;9.726;2023-04-06T12:25:31;6.32;;;4.13;;
13051;SDS011;6592;47.484;9.726;2023-04-06T12:27:59;6.80;;;4.35;;
13051;SDS011;6592;47.484;9.726;2023-04-06T12:30:29;7.05;;;4.18;;
13051;SDS011;6592;47.484;9.726;2023-04-06T12:32:58;6.97;;;4.47;;
13051;SDS011;6592;47.484;9.726;2023-04-06T12:35:27;7.22;;;4.50;;
13051;SDS011;6592;47.484;9.726;2023-04-06T12:37:55;7.38;;;4.30;;
13051;SDS011;6592;47.484;9.726;2023-04-06T12:40:23;7.10;;;4.53;;
13051;SDS011;6592;47.484;9.726;2023-04-06T12:42:52;8.38;;;4.43;;
13051;SDS011;6592;47.484;9.726;2023-04-06T12:45:20;5.65;;;4.00;;
13051;SDS011;6592;47.484;9.726;2023-04-06T12:47:50;5.75;;;4.38;;
13051;SDS011;6592;47.484;9.726;2023-04-06T12:50:18;6.38;;;4.32;;
13051;SDS011;6592;47.484;9.726;2023-04-06T12:52:47;6.40;;;4.63;;
13051;SDS011;6592;47.484;9.726;2023-04-06T12:55:15;6.15;;;4.40;;
13051;SDS011;6592;47.484;9.726;2023-04-06T12:57:44;6.50;;;4.57;;
13051;SDS011;6592;47.484;9.726;2023-04-06T13:00:13;7.70;;;5.00;;
13051;SDS011;6592;47.484;9.726;2023-04-06T13:02:42;7.13;;;5.22;;
13051;SDS011;6592;47.484;9.726;2023-04-06T13:05:15;8.65;;;5.57;;
13051;SDS011;6592;47.484;9.726;2023-04-06T13:07:45;8.07;;;5.68;;
13051;SDS011;6592;47.484;9.726;2023-04-06T13:10:14;7.18;;;5.30;;
13051;SDS011;6592;47.484;9.726;2023-04-06T13:12:42;7.97;;;5.10;;
13051;SDS011;6592;47.484;9.726;2023-04-06T13:15:11;7.88;;;5.07;;
13051;SDS011;6592;47.484;9.726;2023-04-06T13:17:39;8.63;;;5.85;;
13051;SDS011;6592;47.484;9.726;2023-04-06T13:20:08;7.97;;;5.68;;
13051;SDS011;6592;47.484;9.726;2023-04-06T13:22:38;7.93;;;5.50;;
13051;SDS011;6592;47.484;9.726;2023-04-06T13:25:07;8.30;;;5.70;;
13051;SDS011;6592;47.484;9.726;2023-04-06T13:27:35;8.20;;;6.03;;
13051;SDS011;6592;47.484;9.726;2023-04-06T13:30:04;8.18;;;6.07;;
13051;SDS011;6592;47.484;9.726;2023-04-06T13:32:33;10.43;;;5.90;;
13051;SDS011;6592;47.484;9.726;2023-04-06T13:35:04;9.30;;;6.40;;
13051;SDS011;6592;47.484;9.726;2023-04-06T13:37:33;9.65;;;6.82;;
13051;SDS011;6592;47.484;9.726;2023-04-06T13:40:04;9.65;;;6.53;;
13051;SDS011;6592;47.484;9.726;2023-04-06T13:42:33;11.07;;;6.65;;
13051;SDS011;6592;47.484;9.726;2023-04-06T13:45:02;9.50;;;6.45;;
13051;SDS011;6592;47.484;9.726;2023-04-06T13:47:31;8.38;;;6.15;;
13051;SDS011;6592;47.484;9.726;2023-04-06T13:50:00;7.75;;;6.15;;
13051;SDS011;6592;47.484;9.726;2023-04-06T13:52:28;8.27;;;6.22;;
13051;SDS011;6592;47.484;9.726;2023-04-06T13:54:56;9.13;;;5.75;;
13051;SDS011;6592;47.484;9.726;2023-04-06T13:57:26;9.38;;;6.03;;
13051;SDS011;6592;47.484;9.726;2023-04-06T13:59:55;8.20;;;6.20;;
13051;SDS011;6592;47.484;9.726;2023-04-06T14:02:24;9.18;;;6.20;;
13051;SDS011;6592;47.484;9.726;2023-04-06T14:04:53;8.68;;;6.07;;
13051;SDS011;6592;47.484;9.726;2023-04-06T14:07:22;8.05;;;5.65;;
13051;SDS011;6592;47.484;9.726;2023-04-06T14:09:50;7.70;;;5.72;;
13051;SDS011;6592;47.484;9.726;2023-04-06T14:12:18;9.00;;;6.13;;
13051;SDS011;6592;47.484;9.726;2023-04-06T14:14:48;9.02;;;5.68;;
13051;SDS011;6592;47.484;9.726;2023-04-06T14:17:16;9.23;;;6.28;;
13051;SDS011;6592;47.484;9.726;2023-04-06T14:19:44;11.10;;;6.00;;
13051;SDS011;6592;47.484;9.726;2023-04-06T14:22:13;9.95;;;6.07;;
13051;SDS011;6592;47.484;9.726;2023-04-06T14:24:41;11.40;;;5.78;;
13051;SDS011;6592;47.484;9.726;2023-04-06T14:27:10;9.30;;;5.65;;
13051;SDS011;6592;47.484;9.726;2023-04-06T14:29:38;7.78;;;5.60;;
13051;SDS011;6592;47.484;9.726;2023-04-06T14:32:08;7.60;;;5.32;;
13051;SDS011;6592;47.484;9.726;2023-04-06T14:34:37;9.95;;;6.00;;
13051;SDS011;6592;47.484;9.726;2023-04-06T14:37:06;8.68;;;5.35;;
13051;SDS011;6592;47.484;9.726;2023-04-06T14:39:34;8.77;;;5.28;;
13051;SDS011;6592;47.484;9.726;2023-04-06T14:42:02;8.48;;;5.40;;
13051;SDS011;6592;47.484;9.726;2023-04-06T14:44:32;8.88;;;5.38;;
13051;SDS011;6592;47.484;9.726;2023-04-06T14:47:03;8.60;;;5.40;;
13051;SDS011;6592;47.484;9.726;2023-04-06T14:49:33;9.38;;;5.55;;
13051;SDS011;6592;47.484;9.726;2023-04-06T14:52:01;13.40;;;5.60;;
13051;SDS011;6592;47.484;9.726;2023-04-06T14:54:30;11.02;;;6.10;;
13051;SDS011;6592;47.484;9.726;2023-04-06T14:56:58;10.18;;;5.80;;
13051;SDS011;6592;47.484;9.726;2023-04-06T14:59:26;10.00;;;5.93;;
13051;SDS011;6592;47.484;9.726;2023-04-06T15:02:00;9.50;;;5.90;;
13051;SDS011;6592;47.484;9.726;2023-04-06T15:04:29;8.90;;;6.00;;
13051;SDS011;6592;47.484;9.726;2023-04-06T15:06:59;11.63;;;5.88;;
13051;SDS011;6592;47.484;9.726;2023-04-06T15:09:27;12.13;;;5.43;;
13051;SDS011;6592;47.484;9.726;2023-04-06T15:11:55;10.65;;;6.28;;